sensor_id;sensor_type;location;lat;lon;timestamp;P1;durP1;ratioP1;P2;durP2;ratioP2
12916;SDS011;6526;54.312;13.092;2024-02-21T00:02:23;4.00;;;3.30;;
12916;SDS011;6526;54.312;13.092;2024-02-21T00:04:49;6.37;;;3.27;;
12916;SDS011;6526;54.312;13.092;2024-02-21T00:07:15;6.37;;;2.77;;
12916;SDS011;6526;54.312;13.092;2024-02-21T00:09:41;10.37;;;3.87;;
12916;SDS011;6526;54.312;13.092;2024-02-21T00:12:08;3.77;;;2.70;;
12916;SDS011;6526;54.312;13.092;2024-02-21T00:14:34;6.40;;;2.57;;
12916;SDS011;6526;54.312;13.092;2024-02-21T00:17:00;4.50;;;2.77;;
12916;SDS011;6526;54.312;13.092;2024-02-21T00:19:26;9.30;;;2.97;;
12916;SDS011;6526;54.312;13.092;2024-02-21T00:21:52;4.73;;;3.63;;
12916;SDS011;6526;54.312;13.092;2024-02-21T00:24:18;7.20;;;3.03;;
12916;SDS011;6526;54.312;13.092;2024-02-21T00:26:44;5.83;;;3.60;;
12916;SDS011;6526;54.312;13.092;2024-02-21T00:29:10;9.37;;;3.83;;
12916;SDS011;6526;54.312;13.092;2024-02-21T00:31:36;10.23;;;3.03;;
12916;SDS011;6526;54.312;13.092;2024-02-21T00:34:02;4.10;;;3.00;;
12916;SDS011;6526;54.312;13.092;2024-02-21T00:36:28;7.60;;;3.97;;
12916;SDS011;6526;54.312;13.092;2024-02-21T00:38:54;4.17;;;3.43;;
12916;SDS011;6526;54.312;13.092;2024-02-21T00:41:20;2.97;;;2.33;;
12916;SDS011;6526;54.312;13.092;2024-02-21T00:43:46;10.17;;;4.33;;
12916;SDS011;6526;54.312;13.092;2024-02-21T00:46:13;9.53;;;3.73;;
12916;SDS011;6526;54.312;13.092;2024-02-21T00:48:39;4.53;;;2.63;;
12916;SDS011;6526;54.312;13.092;2024-02-21T00:51:05;5.93;;;3.27;;
12916;SDS011;6526;54.312;13.092;2024-02-21T00:53:31;7.63;;;4.33;;
12916;SDS011;6526;54.312;13.092;2024-02-21T00:55:57;13.77;;;5.80;;
12916;SDS011;6526;54.312;13.092;2024-02-21T00:58:23;15.23;;;5.60;;
12916;SDS011;6526;54.312;13.092;2024-02-21T01:00:49;4.50;;;3.50;;
12916;SDS011;6526;54.312;13.092;2024-02-21T01:03:15;16.50;;;5.80;;
12916;SDS011;6526;54.312;13.092;2024-02-21T01:05:41;19.10;;;6.80;;
12916;SDS011;6526;54.312;13.092;2024-02-21T01:08:07;7.30;;;4.13;;
12916;SDS011;6526;54.312;13.092;2024-02-21T01:10:33;6.70;;;3.43;;
12916;SDS011;6526;54.312;13.092;2024-02-21T01:12:59;15.30;;;8.47;;
12916;SDS011;6526;54.312;13.092;2024-02-21T01:15:25;4.40;;;3.10;;
12916;SDS011;6526;54.312;13.092;2024-02-21T01:17:51;12.63;;;4.97;;
12916;SDS011;6526;54.312;13.092;2024-02-21T01:20:19;15.37;;;6.43;;
12916;SDS011;6526;54.312;13.092;2024-02-21T01:22:46;15.97;;;7.23;;
12916;SDS011;6526;54.312;13.092;2024-02-21T01:25:12;12.10;;;6.30;;
12916;SDS011;6526;54.312;13.092;2024-02-21T01:27:38;8.27;;;4.87;;
12916;SDS011;6526;54.312;13.092;2024-02-21T01:30:04;13.40;;;7.50;;
12916;SDS011;6526;54.312;13.092;2024-02-21T01:32:31;20.00;;;6.57;;
12916;SDS011;6526;54.312;13.092;2024-02-21T01:34:57;11.90;;;6.63;;
12916;SDS011;6526;54.312;13.092;2024-02-21T01:37:23;7.57;;;3.77;;
12916;SDS011;6526;54.312;13.092;2024-02-21T01:39:49;13.13;;;6.03;;
12916;SDS011;6526;54.312;13.092;2024-02-21T01:42:15;8.57;;;5.50;;
12916;SDS011;6526;54.312;13.092;2024-02-21T01:44:41;9.57;;;6.83;;
12916;SDS011;6526;54.312;13.092;2024-02-21T01:47:07;8.63;;;6.73;;
12916;SDS011;6526;54.312;13.092;2024-02-21T01:49:38;16.83;;;8.87;;
12916;SDS011;6526;54.312;13.092;2024-02-21T01:52:08;10.07;;;6.30;;
12916;SDS011;6526;54.312;13.092;2024-02-21T01:54:36;24.60;;;10.90;;
12916;SDS011;6526;54.312;13.092;2024-02-21T01:57:03;24.50;;;11.70;;
12916;SDS011;6526;54.312;13.092;2024-02-21T01:59:30;8.23;;;5.47;;
12916;SDS011;6526;54.312;13.092;2024-02-21T02:01:56;23.90;;;7.87;;
12916;SDS011;6526;54.312;13.092;2024-02-21T02:04:23;10.73;;;8.27;;
12916;SDS011;6526;54.312;13.092;2024-02-21T02:06:50;14.60;;;7.10;;
12916;SDS011;6526;54.312;13.092;2024-02-21T02:09:17;17.43;;;8.50;;
12916;SDS011;6526;54.312;13.092;2024-02-21T02:11:43;16.50;;;8.23;;
12916;SDS011;6526;54.312;13.092;2024-02-21T02:14:09;6.57;;;5.27;;
12916;SDS011;6526;54.312;13.092;2024-02-21T02:16:35;25.40;;;11.30;;
12916;SDS011;6526;54.312;13.092;2024-02-21T02:19:01;19.53;;;8.73;;
12916;SDS011;6526;54.312;13.092;2024-02-21T02:21:32;9.27;;;5.53;;
12916;SDS011;6526;54.312;13.092;2024-02-21T02:24:04;23.63;;;12.03;;
12916;SDS011;6526;54.312;13.092;2024-02-21T02:26:31;7.80;;;4.20;;
12916;SDS011;6526;54.312;13.092;2024-02-21T02:28:57;13.30;;;5.97;;
12916;SDS011;6526;54.312;13.092;2024-02-21T02:31:23;23.63;;;12.87;;
12916;SDS011;6526;54.312;13.092;2024-02-21T02:33:49;14.50;;;8.67;;
12916;SDS011;6526;54.312;13.092;2024-02-21T02:36:15;11.13;;;6.37;;
12916;SDS011;6526;54.312;13.092;2024-02-21T02:38:42;11.23;;;5.60;;
12916;SDS011;6526;54.312;13.092;2024-02-21T02:41:08;7.13;;;4.77;;
12916;SDS011;6526;54.312;13.092;2024-02-21T02:43:34;18.50;;;7.90;;
12916;SDS011;6526;54.312;13.092;2024-02-21T02:46:01;27.73;;;9.63;;
12916;SDS011;6526;54.312;13.092;2024-02-21T02:48:28;35.40;;;15.13;;
12916;SDS011;6526;54.312;13.092;2024-02-21T02:50:54;17.07;;;7.20;;
12916;SDS011;6526;54.312;13.092;2024-02-21T02:53:20;22.30;;;8.07;;
12916;SDS011;6526;54.312;13.092;2024-02-21T02:55:46;10.50;;;6.03;;
12916;SDS011;6526;54.312;13.092;2024-02-21T02:58:12;7.47;;;5.93;;
12916;SDS011;6526;54.312;13.092;2024-02-21T03:00:38;28.10;;;13.93;;
12916;SDS011;6526;54.312;13.092;2024-02-21T03:03:04;18.50;;;9.43;;
12916;SDS011;6526;54.312;13.092;2024-02-21T03:05:30;25.57;;;11.70;;
12916;SDS011;6526;54.312;13.092;2024-02-21T03:07:56;12.13;;;7.37;;
12916;SDS011;6526;54.312;13.092;2024-02-21T03:10:23;17.83;;;9.87;;
12916;SDS011;6526;54.312;13.092;2024-02-21T03:12:49;20.63;;;9.00;;
12916;SDS011;6526;54.312;13.092;2024-02-21T03:15:18;15.30;;;8.63;;
12916;SDS011;6526;54.312;13.092;2024-02-21T03:17:44;34.30;;;12.97;;
12916;SDS011;6526;54.312;13.092;2024-02-21T03:20:10;17.97;;;8.97;;
12916;SDS011;6526;54.312;13.092;2024-02-21T03:22:36;30.83;;;14.97;;
12916;SDS011;6526;54.312;13.092;2024-02-21T03:25:03;5.60;;;4.17;;
12916;SDS011;6526;54.312;13.092;2024-02-21T03:27:29;38.40;;;19.37;;
12916;SDS011;6526;54.312;13.092;2024-02-21T03:29:55;17.13;;;8.73;;
12916;SDS011;6526;54.312;13.092;2024-02-21T03:32:21;21.30;;;9.67;;
12916;SDS011;6526;54.312;13.092;2024-02-21T03:34:47;22.30;;;11.07;;
12916;SDS011;6526;54.312;13.092;2024-02-21T03:37:13;15.50;;;9.00;;
12916;SDS011;6526;54.312;13.092;2024-02-21T03:39:40;38.53;;;18.37;;
12916;SDS011;6526;54.312;13.092;2024-02-21T03:42:06;16.53;;;8.50;;
12916;SDS011;6526;54.312;13.092;2024-02-21T03:44:32;31.23;;;11.47;;
12916;SDS011;6526;54.312;13.092;2024-02-21T03:46:59;7.50;;;5.47;;
12916;SDS011;6526;54.312;13.092;2024-02-21T03:49:25;9.57;;;6.23;;
12916;SDS011;6526;54.312;13.092;2024-02-21T03:51:51;22.50;;;11.97;;
12916;SDS011;6526;54.312;13.092;2024-02-21T03:54:17;9.73;;;6.60;;
12916;SDS011;6526;54.312;13.092;2024-02-21T03:56:44;48.63;;;19.70;;
12916;SDS011;6526;54.312;13.092;2024-02-21T03:59:12;36.03;;;17.70;;
12916;SDS011;6526;54.312;13.092;2024-02-21T04:01:38;26.60;;;12.03;;
12916;SDS011;6526;54.312;13.092;2024-02-21T04:04:04;11.80;;;7.20;;
12916;SDS011;6526;54.312;13.092;2024-02-21T04:06:30;32.53;;;12.63;;
12916;SDS011;6526;54.312;13.092;2024-02-21T04:08:56;21.40;;;7.10;;
12916;SDS011;6526;54.312;13.092;2024-02-21T04:11:23;23.00;;;8.80;;
12916;SDS011;6526;54.312;13.092;2024-02-21T04:13:49;21.93;;;10.00;;
12916;SDS011;6526;54.312;13.092;2024-02-21T04:16:16;10.83;;;6.73;;
12916;SDS011;6526;54.312;13.092;2024-02-21T04:18:43;13.17;;;7.30;;
12916;SDS011;6526;54.312;13.092;2024-02-21T04:21:09;13.37;;;7.43;;
12916;SDS011;6526;54.312;13.092;2024-02-21T04:23:35;20.03;;;11.90;;
12916;SDS011;6526;54.312;13.092;2024-02-21T04:26:01;18.97;;;11.17;;
12916;SDS011;6526;54.312;13.092;2024-02-21T04:28:27;16.57;;;8.83;;
12916;SDS011;6526;54.312;13.092;2024-02-21T04:30:53;9.30;;;5.23;;
12916;SDS011;6526;54.312;13.092;2024-02-21T04:33:19;31.40;;;13.37;;
12916;SDS011;6526;54.312;13.092;2024-02-21T04:35:45;21.40;;;11.30;;
12916;SDS011;6526;54.312;13.092;2024-02-21T04:38:11;17.00;;;9.73;;
12916;SDS011;6526;54.312;13.092;2024-02-21T04:40:39;21.53;;;10.40;;
12916;SDS011;6526;54.312;13.092;2024-02-21T04:43:05;8.93;;;5.50;;
12916;SDS011;6526;54.312;13.092;2024-02-21T04:45:31;22.17;;;9.90;;
12916;SDS011;6526;54.312;13.092;2024-02-21T04:47:57;17.40;;;8.50;;
12916;SDS011;6526;54.312;13.092;2024-02-21T04:50:23;28.07;;;13.40;;
12916;SDS011;6526;54.312;13.092;2024-02-21T04:52:49;23.77;;;10.53;;
12916;SDS011;6526;54.312;13.092;2024-02-21T04:55:15;25.03;;;11.60;;
12916;SDS011;6526;54.312;13.092;2024-02-21T04:57:41;14.13;;;7.67;;
12916;SDS011;6526;54.312;13.092;2024-02-21T05:00:07;18.00;;;11.40;;
12916;SDS011;6526;54.312;13.092;2024-02-21T05:02:34;7.57;;;6.27;;
12916;SDS011;6526;54.312;13.092;2024-02-21T05:05:00;20.43;;;10.47;;
12916;SDS011;6526;54.312;13.092;2024-02-21T05:07:27;14.93;;;9.33;;
12916;SDS011;6526;54.312;13.092;2024-02-21T05:09:53;13.70;;;9.20;;
12916;SDS011;6526;54.312;13.092;2024-02-21T05:12:19;18.27;;;9.97;;
12916;SDS011;6526;54.312;13.092;2024-02-21T05:14:45;18.13;;;10.60;;
12916;SDS011;6526;54.312;13.092;2024-02-21T05:17:12;14.73;;;9.23;;
12916;SDS011;6526;54.312;13.092;2024-02-21T05:19:38;10.20;;;6.03;;
12916;SDS011;6526;54.312;13.092;2024-02-21T05:22:04;14.90;;;8.03;;
12916;SDS011;6526;54.312;13.092;2024-02-21T05:24:30;33.33;;;12.83;;
12916;SDS011;6526;54.312;13.092;2024-02-21T05:26:56;13.83;;;6.47;;
12916;SDS011;6526;54.312;13.092;2024-02-21T05:29:22;21.93;;;11.37;;
12916;SDS011;6526;54.312;13.092;2024-02-21T05:34:17;11.77;;;7.37;;
12916;SDS011;6526;54.312;13.092;2024-02-21T05:36:44;8.73;;;6.63;;
12916;SDS011;6526;54.312;13.092;2024-02-21T05:39:10;4.43;;;3.50;;
12916;SDS011;6526;54.312;13.092;2024-02-21T05:41:37;16.70;;;8.33;;
12916;SDS011;6526;54.312;13.092;2024-02-21T05:44:03;14.17;;;7.77;;
12916;SDS011;6526;54.312;13.092;2024-02-21T05:46:29;11.33;;;5.87;;
12916;SDS011;6526;54.312;13.092;2024-02-21T05:48:55;14.53;;;8.20;;
12916;SDS011;6526;54.312;13.092;2024-02-21T05:51:21;7.03;;;4.90;;
12916;SDS011;6526;54.312;13.092;2024-02-21T05:53:47;14.57;;;7.37;;
12916;SDS011;6526;54.312;13.092;2024-02-21T05:56:13;10.60;;;6.07;;
12916;SDS011;6526;54.312;13.092;2024-02-21T05:58:40;7.63;;;5.07;;
12916;SDS011;6526;54.312;13.092;2024-02-21T06:01:06;8.27;;;5.03;;
12916;SDS011;6526;54.312;13.092;2024-02-21T06:03:33;7.30;;;4.13;;
12916;SDS011;6526;54.312;13.092;2024-02-21T06:05:59;3.40;;;2.87;;
12916;SDS011;6526;54.312;13.092;2024-02-21T06:08:26;8.73;;;3.90;;
12916;SDS011;6526;54.312;13.092;2024-02-21T06:10:52;12.43;;;4.70;;
12916;SDS011;6526;54.312;13.092;2024-02-21T06:13:21;5.77;;;4.20;;
12916;SDS011;6526;54.312;13.092;2024-02-21T06:15:48;8.03;;;4.33;;
12916;SDS011;6526;54.312;13.092;2024-02-21T06:18:15;5.17;;;4.00;;
12916;SDS011;6526;54.312;13.092;2024-02-21T06:20:44;8.97;;;5.60;;
12916;SDS011;6526;54.312;13.092;2024-02-21T06:23:11;4.57;;;3.37;;
12916;SDS011;6526;54.312;13.092;2024-02-21T06:25:37;5.30;;;3.23;;
12916;SDS011;6526;54.312;13.092;2024-02-21T06:28:04;5.30;;;4.30;;
12916;SDS011;6526;54.312;13.092;2024-02-21T06:30:30;7.63;;;2.77;;
12916;SDS011;6526;54.312;13.092;2024-02-21T06:32:56;5.97;;;4.37;;
12916;SDS011;6526;54.312;13.092;2024-02-21T06:35:24;6.07;;;3.53;;
12916;SDS011;6526;54.312;13.092;2024-02-21T06:37:50;8.57;;;3.40;;
12916;SDS011;6526;54.312;13.092;2024-02-21T06:40:17;2.20;;;1.27;;
12916;SDS011;6526;54.312;13.092;2024-02-21T06:42:46;3.23;;;2.17;;
12916;SDS011;6526;54.312;13.092;2024-02-21T06:45:12;8.53;;;2.80;;
12916;SDS011;6526;54.312;13.092;2024-02-21T06:47:38;2.50;;;1.80;;
12916;SDS011;6526;54.312;13.092;2024-02-21T06:50:04;7.10;;;2.07;;
12916;SDS011;6526;54.312;13.092;2024-02-21T06:52:30;3.07;;;1.77;;
12916;SDS011;6526;54.312;13.092;2024-02-21T06:54:56;3.23;;;1.20;;
12916;SDS011;6526;54.312;13.092;2024-02-21T06:57:23;7.43;;;2.20;;
12916;SDS011;6526;54.312;13.092;2024-02-21T06:59:49;2.77;;;1.60;;
12916;SDS011;6526;54.312;13.092;2024-02-21T07:02:15;3.20;;;0.87;;
12916;SDS011;6526;54.312;13.092;2024-02-21T07:04:41;4.73;;;1.53;;
12916;SDS011;6526;54.312;13.092;2024-02-21T07:07:08;3.50;;;1.83;;
12916;SDS011;6526;54.312;13.092;2024-02-21T07:09:34;2.87;;;1.93;;
12916;SDS011;6526;54.312;13.092;2024-02-21T07:12:01;20.87;;;1.57;;
12916;SDS011;6526;54.312;13.092;2024-02-21T07:14:28;2.30;;;1.70;;
12916;SDS011;6526;54.312;13.092;2024-02-21T07:16:54;2.17;;;1.47;;
12916;SDS011;6526;54.312;13.092;2024-02-21T07:19:22;0.53;;;0.43;;
12916;SDS011;6526;54.312;13.092;2024-02-21T07:21:48;2.30;;;1.47;;
12916;SDS011;6526;54.312;13.092;2024-02-21T07:24:14;3.63;;;2.10;;
12916;SDS011;6526;54.312;13.092;2024-02-21T07:26:43;3.30;;;2.20;;
12916;SDS011;6526;54.312;13.092;2024-02-21T07:29:09;1.93;;;1.63;;
12916;SDS011;6526;54.312;13.092;2024-02-21T07:31:41;0.97;;;0.83;;
12916;SDS011;6526;54.312;13.092;2024-02-21T07:34:08;7.63;;;1.53;;
12916;SDS011;6526;54.312;13.092;2024-02-21T07:36:34;1.17;;;0.83;;
12916;SDS011;6526;54.312;13.092;2024-02-21T07:39:00;5.40;;;1.73;;
12916;SDS011;6526;54.312;13.092;2024-02-21T07:41:26;5.93;;;0.43;;
12916;SDS011;6526;54.312;13.092;2024-02-21T07:43:55;4.87;;;0.93;;
12916;SDS011;6526;54.312;13.092;2024-02-21T07:46:21;1.17;;;1.03;;
12916;SDS011;6526;54.312;13.092;2024-02-21T07:48:47;1.33;;;0.90;;
12916;SDS011;6526;54.312;13.092;2024-02-21T07:51:13;2.40;;;1.10;;
12916;SDS011;6526;54.312;13.092;2024-02-21T07:53:42;2.80;;;1.00;;
12916;SDS011;6526;54.312;13.092;2024-02-21T07:56:10;2.17;;;1.17;;
12916;SDS011;6526;54.312;13.092;2024-02-21T07:58:36;3.33;;;1.57;;
12916;SDS011;6526;54.312;13.092;2024-02-21T08:01:03;4.10;;;1.20;;
12916;SDS011;6526;54.312;13.092;2024-02-21T08:03:29;2.80;;;1.33;;
12916;SDS011;6526;54.312;13.092;2024-02-21T08:05:55;7.63;;;1.10;;
12916;SDS011;6526;54.312;13.092;2024-02-21T08:08:21;0.90;;;0.60;;
12916;SDS011;6526;54.312;13.092;2024-02-21T08:10:48;0.53;;;0.30;;
12916;SDS011;6526;54.312;13.092;2024-02-21T08:13:14;0.40;;;0.40;;
12916;SDS011;6526;54.312;13.092;2024-02-21T08:15:40;0.60;;;0.60;;
12916;SDS011;6526;54.312;13.092;2024-02-21T08:18:07;0.83;;;0.57;;
12916;SDS011;6526;54.312;13.092;2024-02-21T08:20:33;4.43;;;1.67;;
12916;SDS011;6526;54.312;13.092;2024-02-21T08:23:00;0.60;;;0.60;;
12916;SDS011;6526;54.312;13.092;2024-02-21T08:25:26;0.30;;;0.30;;
12916;SDS011;6526;54.312;13.092;2024-02-21T08:27:57;1.77;;;0.90;;
12916;SDS011;6526;54.312;13.092;2024-02-21T08:30:23;3.50;;;1.03;;
12916;SDS011;6526;54.312;13.092;2024-02-21T08:32:49;4.20;;;1.07;;
12916;SDS011;6526;54.312;13.092;2024-02-21T08:35:15;4.30;;;0.60;;
12916;SDS011;6526;54.312;13.092;2024-02-21T08:37:47;2.67;;;1.07;;
12916;SDS011;6526;54.312;13.092;2024-02-21T08:40:13;3.03;;;0.70;;
12916;SDS011;6526;54.312;13.092;2024-02-21T08:42:42;1.00;;;0.87;;
12916;SDS011;6526;54.312;13.092;2024-02-21T08:45:08;0.47;;;0.47;;
12916;SDS011;6526;54.312;13.092;2024-02-21T08:47:35;0.30;;;0.30;;
12916;SDS011;6526;54.312;13.092;2024-02-21T08:50:04;0.73;;;0.50;;
12916;SDS011;6526;54.312;13.092;2024-02-21T08:52:31;2.77;;;1.07;;
12916;SDS011;6526;54.312;13.092;2024-02-21T08:54:57;2.23;;;1.03;;
12916;SDS011;6526;54.312;13.092;2024-02-21T08:57:23;2.13;;;1.03;;
12916;SDS011;6526;54.312;13.092;2024-02-21T08:59:49;0.80;;;0.70;;
12916;SDS011;6526;54.312;13.092;2024-02-21T09:02:15;5.40;;;1.90;;
12916;SDS011;6526;54.312;13.092;2024-02-21T09:04:41;5.10;;;1.40;;
12916;SDS011;6526;54.312;13.092;2024-02-21T09:07:08;7.20;;;0.93;;
12916;SDS011;6526;54.312;13.092;2024-02-21T09:09:35;0.87;;;0.67;;
12916;SDS011;6526;54.312;13.092;2024-02-21T09:12:03;4.33;;;1.37;;
12916;SDS011;6526;54.312;13.092;2024-02-21T09:14:33;8.00;;;2.00;;
12916;SDS011;6526;54.312;13.092;2024-02-21T09:17:03;1.07;;;0.73;;
12916;SDS011;6526;54.312;13.092;2024-02-21T09:19:29;2.03;;;0.70;;
12916;SDS011;6526;54.312;13.092;2024-02-21T09:21:55;5.57;;;1.23;;
12916;SDS011;6526;54.312;13.092;2024-02-21T09:24:21;1.70;;;1.07;;
12916;SDS011;6526;54.312;13.092;2024-02-21T09:26:47;4.23;;;1.00;;
12916;SDS011;6526;54.312;13.092;2024-02-21T09:29:14;1.40;;;0.87;;
12916;SDS011;6526;54.312;13.092;2024-02-21T09:31:41;6.10;;;1.37;;
12916;SDS011;6526;54.312;13.092;2024-02-21T09:34:07;1.07;;;0.70;;
12916;SDS011;6526;54.312;13.092;2024-02-21T09:36:33;4.60;;;1.20;;
12916;SDS011;6526;54.312;13.092;2024-02-21T09:38:59;6.03;;;1.30;;
12916;SDS011;6526;54.312;13.092;2024-02-21T09:41:25;1.93;;;0.60;;
12916;SDS011;6526;54.312;13.092;2024-02-21T09:43:55;5.60;;;0.93;;
12916;SDS011;6526;54.312;13.092;2024-02-21T09:46:39;4.63;;;1.23;;
12916;SDS011;6526;54.312;13.092;2024-02-21T09:49:29;2.73;;;1.40;;
12916;SDS011;6526;54.312;13.092;2024-02-21T09:51:57;0.93;;;0.30;;
12916;SDS011;6526;54.312;13.092;2024-02-21T09:54:29;3.77;;;1.43;;
12916;SDS011;6526;54.312;13.092;2024-02-21T09:57:01;0.53;;;0.40;;
12916;SDS011;6526;54.312;13.092;2024-02-21T09:59:28;1.27;;;0.90;;
12916;SDS011;6526;54.312;13.092;2024-02-21T10:01:56;1.00;;;0.90;;
12916;SDS011;6526;54.312;13.092;2024-02-21T10:04:25;4.77;;;1.60;;
12916;SDS011;6526;54.312;13.092;2024-02-21T10:06:51;3.93;;;1.60;;
12916;SDS011;6526;54.312;13.092;2024-02-21T10:09:25;1.00;;;0.87;;
12916;SDS011;6526;54.312;13.092;2024-02-21T10:11:53;1.20;;;0.80;;
12916;SDS011;6526;54.312;13.092;2024-02-21T10:14:19;7.23;;;1.53;;
12916;SDS011;6526;54.312;13.092;2024-02-21T10:16:47;1.27;;;1.03;;
12916;SDS011;6526;54.312;13.092;2024-02-21T10:19:20;4.53;;;1.00;;
12916;SDS011;6526;54.312;13.092;2024-02-21T10:22:01;6.43;;;1.27;;
12916;SDS011;6526;54.312;13.092;2024-02-21T10:24:29;3.03;;;1.10;;
12916;SDS011;6526;54.312;13.092;2024-02-21T10:27:04;6.37;;;2.00;;
12916;SDS011;6526;54.312;13.092;2024-02-21T10:29:34;4.20;;;2.10;;
12916;SDS011;6526;54.312;13.092;2024-02-21T10:32:33;0.67;;;0.67;;
12916;SDS011;6526;54.312;13.092;2024-02-21T10:35:00;7.93;;;1.40;;
12916;SDS011;6526;54.312;13.092;2024-02-21T10:37:29;3.73;;;1.33;;
12916;SDS011;6526;54.312;13.092;2024-02-21T10:39:56;4.10;;;1.53;;
12916;SDS011;6526;54.312;13.092;2024-02-21T10:42:22;4.57;;;1.57;;
12916;SDS011;6526;54.312;13.092;2024-02-21T10:44:55;1.07;;;0.87;;
12916;SDS011;6526;54.312;13.092;2024-02-21T10:47:29;4.10;;;1.30;;
12916;SDS011;6526;54.312;13.092;2024-02-21T10:49:57;8.67;;;1.80;;
12916;SDS011;6526;54.312;13.092;2024-02-21T10:52:40;4.77;;;1.57;;
12916;SDS011;6526;54.312;13.092;2024-02-21T10:55:16;3.10;;;1.50;;
12916;SDS011;6526;54.312;13.092;2024-02-21T10:57:48;10.53;;;1.50;;
12916;SDS011;6526;54.312;13.092;2024-02-21T11:00:14;0.70;;;0.70;;
12916;SDS011;6526;54.312;13.092;2024-02-21T11:02:44;3.93;;;1.53;;
12916;SDS011;6526;54.312;13.092;2024-02-21T11:05:11;2.43;;;1.87;;
12916;SDS011;6526;54.312;13.092;2024-02-21T11:07:38;3.40;;;1.40;;
12916;SDS011;6526;54.312;13.092;2024-02-21T11:10:05;2.20;;;0.70;;
12916;SDS011;6526;54.312;13.092;2024-02-21T11:12:45;5.33;;;1.50;;
12916;SDS011;6526;54.312;13.092;2024-02-21T11:15:11;3.17;;;1.20;;
12916;SDS011;6526;54.312;13.092;2024-02-21T11:17:37;4.77;;;1.37;;
12916;SDS011;6526;54.312;13.092;2024-02-21T11:20:21;0.93;;;0.63;;
12916;SDS011;6526;54.312;13.092;2024-02-21T11:23:02;5.50;;;1.57;;
12916;SDS011;6526;54.312;13.092;2024-02-21T11:25:28;0.50;;;0.50;;
12916;SDS011;6526;54.312;13.092;2024-02-21T11:28:07;9.00;;;1.20;;
12916;SDS011;6526;54.312;13.092;2024-02-21T11:30:36;1.70;;;0.43;;
12916;SDS011;6526;54.312;13.092;2024-02-21T11:33:03;4.00;;;0.83;;
12916;SDS011;6526;54.312;13.092;2024-02-21T11:35:32;3.03;;;1.30;;
12916;SDS011;6526;54.312;13.092;2024-02-21T11:38:09;3.30;;;1.10;;
12916;SDS011;6526;54.312;13.092;2024-02-21T11:40:38;1.87;;;1.60;;
12916;SDS011;6526;54.312;13.092;2024-02-21T11:43:05;2.00;;;0.80;;
12916;SDS011;6526;54.312;13.092;2024-02-21T11:45:31;2.47;;;1.40;;
12916;SDS011;6526;54.312;13.092;2024-02-21T11:47:58;2.13;;;1.10;;
12916;SDS011;6526;54.312;13.092;2024-02-21T11:50:25;3.47;;;1.17;;
12916;SDS011;6526;54.312;13.092;2024-02-21T11:52:54;0.47;;;0.47;;
12916;SDS011;6526;54.312;13.092;2024-02-21T11:55:20;2.90;;;0.90;;
12916;SDS011;6526;54.312;13.092;2024-02-21T11:57:47;5.13;;;0.80;;
12916;SDS011;6526;54.312;13.092;2024-02-21T12:00:14;0.50;;;0.40;;
12916;SDS011;6526;54.312;13.092;2024-02-21T12:02:42;2.00;;;0.50;;
12916;SDS011;6526;54.312;13.092;2024-02-21T12:05:09;6.53;;;1.20;;
12916;SDS011;6526;54.312;13.092;2024-02-21T12:07:37;2.03;;;1.13;;
12916;SDS011;6526;54.312;13.092;2024-02-21T12:10:10;3.70;;;0.70;;
12916;SDS011;6526;54.312;13.092;2024-02-21T12:12:37;1.27;;;1.07;;
12916;SDS011;6526;54.312;13.092;2024-02-21T12:15:04;3.23;;;0.90;;
12916;SDS011;6526;54.312;13.092;2024-02-21T12:17:34;3.07;;;1.03;;
12916;SDS011;6526;54.312;13.092;2024-02-21T12:20:01;0.33;;;0.23;;
12916;SDS011;6526;54.312;13.092;2024-02-21T12:22:33;2.30;;;1.03;;
12916;SDS011;6526;54.312;13.092;2024-02-21T12:25:03;0.90;;;0.53;;
12916;SDS011;6526;54.312;13.092;2024-02-21T12:27:29;2.87;;;0.63;;
12916;SDS011;6526;54.312;13.092;2024-02-21T12:29:55;5.77;;;0.67;;
12916;SDS011;6526;54.312;13.092;2024-02-21T12:32:21;2.03;;;1.43;;
12916;SDS011;6526;54.312;13.092;2024-02-21T12:34:47;0.73;;;0.30;;
12916;SDS011;6526;54.312;13.092;2024-02-21T12:37:13;1.77;;;1.20;;
12916;SDS011;6526;54.312;13.092;2024-02-21T12:39:40;1.87;;;0.50;;
12916;SDS011;6526;54.312;13.092;2024-02-21T12:42:06;3.90;;;1.07;;
12916;SDS011;6526;54.312;13.092;2024-02-21T12:44:34;2.70;;;1.07;;
12916;SDS011;6526;54.312;13.092;2024-02-21T12:47:00;5.50;;;1.17;;
12916;SDS011;6526;54.312;13.092;2024-02-21T12:49:26;3.33;;;0.90;;
12916;SDS011;6526;54.312;13.092;2024-02-21T12:51:54;8.00;;;1.00;;
12916;SDS011;6526;54.312;13.092;2024-02-21T12:54:21;2.10;;;1.10;;
12916;SDS011;6526;54.312;13.092;2024-02-21T12:56:47;3.17;;;1.17;;
12916;SDS011;6526;54.312;13.092;2024-02-21T12:59:13;0.80;;;0.80;;
12916;SDS011;6526;54.312;13.092;2024-02-21T13:01:39;0.60;;;0.40;;
12916;SDS011;6526;54.312;13.092;2024-02-21T13:04:05;2.87;;;1.07;;
12916;SDS011;6526;54.312;13.092;2024-02-21T13:06:31;5.50;;;1.77;;
12916;SDS011;6526;54.312;13.092;2024-02-21T13:08:57;3.93;;;1.13;;
12916;SDS011;6526;54.312;13.092;2024-02-21T13:11:24;0.63;;;0.63;;
12916;SDS011;6526;54.312;13.092;2024-02-21T13:13:53;6.17;;;1.33;;
12916;SDS011;6526;54.312;13.092;2024-02-21T13:16:19;5.20;;;0.77;;
12916;SDS011;6526;54.312;13.092;2024-02-21T13:18:45;4.57;;;0.90;;
12916;SDS011;6526;54.312;13.092;2024-02-21T13:21:12;2.70;;;0.50;;
12916;SDS011;6526;54.312;13.092;2024-02-21T13:23:39;1.80;;;0.83;;
12916;SDS011;6526;54.312;13.092;2024-02-21T13:26:05;0.63;;;0.50;;
12916;SDS011;6526;54.312;13.092;2024-02-21T13:28:31;1.30;;;0.80;;
12916;SDS011;6526;54.312;13.092;2024-02-21T13:30:57;1.03;;;0.60;;
12916;SDS011;6526;54.312;13.092;2024-02-21T13:33:23;1.77;;;0.70;;
12916;SDS011;6526;54.312;13.092;2024-02-21T13:35:49;1.27;;;0.90;;
12916;SDS011;6526;54.312;13.092;2024-02-21T13:38:15;2.10;;;0.67;;
12916;SDS011;6526;54.312;13.092;2024-02-21T13:40:43;0.43;;;0.43;;
12916;SDS011;6526;54.312;13.092;2024-02-21T13:43:09;1.50;;;0.90;;
12916;SDS011;6526;54.312;13.092;2024-02-21T13:45:36;4.13;;;0.77;;
12916;SDS011;6526;54.312;13.092;2024-02-21T13:48:03;3.57;;;1.13;;
12916;SDS011;6526;54.312;13.092;2024-02-21T13:50:31;3.70;;;1.23;;
12916;SDS011;6526;54.312;13.092;2024-02-21T13:52:59;0.20;;;0.20;;
12916;SDS011;6526;54.312;13.092;2024-02-21T13:55:26;6.13;;;0.87;;
12916;SDS011;6526;54.312;13.092;2024-02-21T13:57:52;2.17;;;1.17;;
12916;SDS011;6526;54.312;13.092;2024-02-21T14:00:18;0.73;;;0.73;;
12916;SDS011;6526;54.312;13.092;2024-02-21T14:02:45;0.23;;;0.23;;
12916;SDS011;6526;54.312;13.092;2024-02-21T14:05:11;5.03;;;0.87;;
12916;SDS011;6526;54.312;13.092;2024-02-21T14:07:38;0.20;;;0.20;;
12916;SDS011;6526;54.312;13.092;2024-02-21T14:10:04;0.30;;;0.20;;
12916;SDS011;6526;54.312;13.092;2024-02-21T14:12:31;0.97;;;0.50;;
12916;SDS011;6526;54.312;13.092;2024-02-21T14:14:57;1.87;;;1.20;;
12916;SDS011;6526;54.312;13.092;2024-02-21T14:17:23;7.60;;;1.37;;
12916;SDS011;6526;54.312;13.092;2024-02-21T14:19:49;3.83;;;0.90;;
12916;SDS011;6526;54.312;13.092;2024-02-21T14:22:16;0.60;;;0.50;;
12916;SDS011;6526;54.312;13.092;2024-02-21T14:24:42;0.40;;;0.30;;
12916;SDS011;6526;54.312;13.092;2024-02-21T14:27:08;2.10;;;0.30;;
12916;SDS011;6526;54.312;13.092;2024-02-21T14:29:34;0.60;;;0.60;;
12916;SDS011;6526;54.312;13.092;2024-02-21T14:32:01;0.43;;;0.30;;
12916;SDS011;6526;54.312;13.092;2024-02-21T14:34:27;0.70;;;0.60;;
12916;SDS011;6526;54.312;13.092;2024-02-21T14:36:53;1.03;;;0.50;;
12916;SDS011;6526;54.312;13.092;2024-02-21T14:39:19;3.93;;;0.50;;
12916;SDS011;6526;54.312;13.092;2024-02-21T14:41:45;0.53;;;0.53;;
12916;SDS011;6526;54.312;13.092;2024-02-21T14:44:11;0.20;;;0.20;;
12916;SDS011;6526;54.312;13.092;2024-02-21T14:46:39;2.10;;;0.77;;